createdAt,value
2022-09-18T00:01:28.183Z,65.80
2022-09-18T00:03:09.095Z,65.80
2022-09-18T00:04:45.752Z,65.90
2022-09-18T00:06:23.067Z,65.90
2022-09-18T00:08:00.613Z,66.10
2022-09-18T00:09:34.007Z,66.10
2022-09-18T00:11:11.213Z,66.20
2022-09-18T00:12:44.581Z,66.40
2022-09-18T00:14:22.788Z,67.20
2022-09-18T00:15:59.947Z,66.60
2022-09-18T00:17:36.961Z,66.70
2022-09-18T00:19:15.296Z,66.70
2022-09-18T00:20:48.622Z,66.80
2022-09-18T00:22:28.474Z,66.80
2022-09-18T00:24:04.966Z,67.00
2022-09-18T00:25:42.530Z,66.80
2022-09-18T00:27:15.812Z,66.80
2022-09-18T00:28:48.228Z,66.60
2022-09-18T00:30:25.457Z,66.80
2022-09-18T00:31:59.841Z,67.00
2022-09-18T00:33:33.669Z,66.90
2022-09-18T00:35:11.618Z,66.90
2022-09-18T00:36:44.291Z,67.10
2022-09-18T00:38:21.377Z,67.10
2022-09-18T00:39:54.647Z,67.20
2022-09-18T00:41:31.545Z,67.10
2022-09-18T00:43:19.684Z,67.10
2022-09-18T00:44:54.616Z,67.30
2022-09-18T00:46:33.437Z,67.20
2022-09-18T00:48:07.349Z,67.40
2022-09-18T00:49:48.169Z,67.30
2022-09-18T00:51:21.683Z,67.40
2022-09-18T00:52:59.742Z,67.20
2022-09-18T00:54:39.285Z,67.20
2022-09-18T00:56:16.742Z,67.30
2022-09-18T00:57:57.152Z,67.30
2022-09-18T00:59:38.253Z,67.30
2022-09-18T01:01:17.197Z,67.30
2022-09-18T01:02:55.621Z,67.50
2022-09-18T01:04:30.597Z,67.40
2022-09-18T01:06:17.243Z,67.40
2022-09-18T01:08:11.891Z,67.60
2022-09-18T01:10:09.709Z,67.50
2022-09-18T01:11:56.428Z,67.50
2022-09-18T01:13:51.531Z,67.40
2022-09-18T01:15:43.992Z,67.30
2022-09-18T01:17:34.321Z,67.30
2022-09-18T01:19:48.936Z,67.10
2022-09-18T01:21:32.612Z,67.00
2022-09-18T01:23:42.923Z,66.90
2022-09-18T01:25:34.210Z,67.80
2022-09-18T01:27:23.049Z,66.80
2022-09-18T01:29:00.976Z,66.80
2022-09-18T01:30:42.082Z,66.90
2022-09-18T01:32:27.760Z,66.90
2022-09-18T01:34:09.976Z,67.10
2022-09-18T01:35:53.721Z,67.20
2022-09-18T01:37:36.634Z,67.30
2022-09-18T01:39:17.169Z,67.20
2022-09-18T01:40:57.693Z,67.00
2022-09-18T01:42:37.915Z,66.80
2022-09-18T01:44:19.637Z,66.80
2022-09-18T01:45:58.465Z,67.00
2022-09-18T01:47:52.611Z,67.00
2022-09-18T01:49:34.437Z,67.20
2022-09-18T01:51:16.619Z,67.20
2022-09-18T01:53:00.048Z,67.20
2022-09-18T01:54:40.210Z,67.30
2022-09-18T01:56:21.777Z,67.40
2022-09-18T01:58:03.517Z,67.30
2022-09-18T01:59:46.501Z,67.40
2022-09-18T02:01:25.767Z,67.40
2022-09-18T02:03:09.748Z,67.10
2022-09-18T02:04:47.385Z,67.00
2022-09-18T02:06:28.977Z,67.10
2022-09-18T02:08:12.665Z,66.90
2022-09-18T02:09:48.729Z,67.00
2022-09-18T02:11:24.329Z,66.90
2022-09-18T02:13:05.671Z,66.90
2022-09-18T02:14:48.077Z,66.90
2022-09-18T02:16:47.122Z,66.90
2022-09-18T02:18:29.474Z,66.90
2022-09-18T02:20:13.801Z,66.90
2022-09-18T02:21:59.512Z,66.70
2022-09-18T02:23:34.698Z,66.80
2022-09-18T02:25:15.524Z,66.80
2022-09-18T02:26:53.668Z,66.80
2022-09-18T02:28:31.229Z,66.90
2022-09-18T02:30:10.553Z,67.00
2022-09-18T02:31:46.308Z,67.10
2022-09-18T02:33:36.837Z,67.10
2022-09-18T02:35:14.684Z,67.40
2022-09-18T02:37:18.287Z,67.10
2022-09-18T02:39:09.640Z,67.50
2022-09-18T02:40:55.881Z,67.10
2022-09-18T02:42:44.875Z,66.90
2022-09-18T02:44:30.513Z,67.00
2022-09-18T02:46:21.491Z,66.90
2022-09-18T02:48:14.197Z,67.00
2022-09-18T02:50:05.371Z,67.00
2022-09-18T02:51:52.061Z,67.10
2022-09-18T02:53:35.033Z,67.10
2022-09-18T02:55:20.186Z,67.10
2022-09-18T02:57:06.986Z,67.20
2022-09-18T02:58:47.004Z,67.30
2022-09-18T03:00:22.411Z,67.20
2022-09-18T03:02:02.911Z,67.10
2022-09-18T03:03:43.088Z,67.10
2022-09-18T03:05:18.690Z,67.10
2022-09-18T03:06:59.631Z,67.00
2022-09-18T03:08:33.103Z,67.00
2022-09-18T03:10:08.411Z,67.10
2022-09-18T03:11:44.230Z,67.20
2022-09-18T03:13:16.607Z,67.30
2022-09-18T03:14:57.264Z,67.30
2022-09-18T03:16:31.061Z,67.30
2022-09-18T03:18:05.919Z,67.30
2022-09-18T03:19:39.778Z,67.40
2022-09-18T03:21:15.692Z,67.40
2022-09-18T03:22:52.368Z,67.50
2022-09-18T03:24:26.720Z,67.40
2022-09-18T03:26:04.238Z,67.40
2022-09-18T03:27:39.984Z,67.50
2022-09-18T03:29:17.921Z,67.40
2022-09-18T03:30:51.315Z,67.30
2022-09-18T03:32:28.797Z,67.40
2022-09-18T03:34:10.453Z,67.30
2022-09-18T03:35:46.538Z,67.40
2022-09-18T03:37:20.328Z,67.10
2022-09-18T03:38:55.521Z,67.00
2022-09-18T03:40:33.163Z,67.00
2022-09-18T03:42:10.014Z,67.10
2022-09-18T03:43:43.221Z,67.20
2022-09-18T03:45:20.847Z,67.30
2022-09-18T03:46:54.398Z,67.20
2022-09-18T03:48:30.732Z,67.10
2022-09-18T03:50:07.860Z,67.10
2022-09-18T03:51:46.268Z,67.10
2022-09-18T03:53:18.761Z,67.10
2022-09-18T03:54:59.012Z,67.00
2022-09-18T03:56:52.240Z,67.00
2022-09-18T03:58:39.305Z,67.00
2022-09-18T04:00:20.961Z,67.10
2022-09-18T04:02:00.903Z,67.10
2022-09-18T04:03:51.948Z,67.10
2022-09-18T04:05:45.961Z,66.90
2022-09-18T04:07:41.813Z,67.70
2022-09-18T04:09:35.376Z,66.80
2022-09-18T04:11:15.223Z,66.80
2022-09-18T04:12:50.781Z,67.00
2022-09-18T04:14:30.463Z,67.00
2022-09-18T04:16:08.053Z,67.00
2022-09-18T04:17:46.249Z,66.80
2022-09-18T04:19:24.624Z,66.80
2022-09-18T04:20:58.080Z,66.80
2022-09-18T04:22:34.135Z,66.80
2022-09-18T04:24:07.900Z,67.00
2022-09-18T04:25:47.300Z,67.00
2022-09-18T04:27:21.503Z,66.90
2022-09-18T04:29:03.438Z,66.90
2022-09-18T04:30:37.828Z,66.90
2022-09-18T04:32:11.193Z,67.00
2022-09-18T04:33:48.295Z,66.80
2022-09-18T04:35:23.772Z,66.80
2022-09-18T04:36:57.228Z,66.80
2022-09-18T04:38:32.560Z,66.90
2022-09-18T04:40:07.606Z,66.90
2022-09-18T04:41:45.589Z,66.80
2022-09-18T04:43:21.428Z,66.80
2022-09-18T04:44:54.849Z,66.80
2022-09-18T04:46:30.326Z,66.80
2022-09-18T04:48:04.180Z,66.80
2022-09-18T04:49:37.477Z,66.90
2022-09-18T04:51:16.539Z,67.00
2022-09-18T04:53:00.200Z,67.10
2022-09-18T04:54:41.654Z,67.00
2022-09-18T04:56:16.100Z,66.80
2022-09-18T04:57:55.798Z,66.70
2022-09-18T04:59:30.232Z,66.80
2022-09-18T05:01:04.865Z,66.80
2022-09-18T05:02:39.806Z,66.80
2022-09-18T05:04:14.741Z,66.90
2022-09-18T05:06:00.924Z,66.90
2022-09-18T05:07:39.529Z,66.80
2022-09-18T05:09:13.572Z,66.80
2022-09-18T05:10:53.289Z,67.00
2022-09-18T05:12:29.376Z,67.20
2022-09-18T05:14:02.748Z,67.30
2022-09-18T05:15:37.917Z,67.30
2022-09-18T05:17:11.956Z,67.30
2022-09-18T05:18:47.989Z,67.10
2022-09-18T05:20:22.576Z,67.10
2022-09-18T05:21:57.481Z,67.10
2022-09-18T05:23:33.308Z,67.10
2022-09-18T05:25:07.834Z,66.90
2022-09-18T05:26:43.624Z,66.90
2022-09-18T05:28:19.888Z,67.00
2022-09-18T05:29:56.347Z,67.10
2022-09-18T05:31:38.881Z,68.10
2022-09-18T05:33:13.036Z,67.30
2022-09-18T05:34:49.981Z,67.20
2022-09-18T05:36:26.925Z,67.20
2022-09-18T05:37:59.781Z,67.30
2022-09-18T05:39:37.004Z,67.30
2022-09-18T05:41:10.777Z,67.30
2022-09-18T05:42:47.060Z,67.30
2022-09-18T05:44:21.272Z,67.30
2022-09-18T05:45:55.341Z,67.20
2022-09-18T05:47:37.297Z,67.10
2022-09-18T05:49:13.793Z,67.10
2022-09-18T05:50:49.624Z,67.00
2022-09-18T05:52:23.939Z,67.00
2022-09-18T05:54:00.293Z,67.00
2022-09-18T05:55:55.434Z,67.00
2022-09-18T05:57:31.856Z,66.90
2022-09-18T05:59:06.678Z,66.80
2022-09-18T06:00:43.788Z,66.80
2022-09-18T06:02:22.487Z,66.90
2022-09-18T06:04:07.051Z,67.00
2022-09-18T06:06:00.678Z,67.20
2022-09-18T06:07:33.066Z,67.20
2022-09-18T06:09:09.178Z,67.10
2022-09-18T06:10:43.127Z,66.80
2022-09-18T06:12:19.577Z,66.80
2022-09-18T06:13:54.785Z,67.00
2022-09-18T06:15:33.088Z,67.10
2022-09-18T06:17:08.050Z,67.10
2022-09-18T06:18:42.082Z,67.10
2022-09-18T06:20:19.866Z,67.10
2022-09-18T06:21:53.879Z,67.20
2022-09-18T06:23:32.179Z,67.30
2022-09-18T06:25:13.072Z,67.50
2022-09-18T06:26:49.139Z,67.50
2022-09-18T06:28:26.160Z,67.50
2022-09-18T06:29:59.876Z,67.50
2022-09-18T06:31:39.905Z,67.40
2022-09-18T06:33:15.964Z,67.40
2022-09-18T06:34:51.918Z,67.30
2022-09-18T06:36:25.352Z,67.40
2022-09-18T06:38:23.989Z,67.50
2022-09-18T06:39:58.240Z,67.70
2022-09-18T06:41:49.562Z,67.70
2022-09-18T06:43:34.349Z,67.80
2022-09-18T06:45:22.572Z,67.80
2022-09-18T06:47:03.840Z,67.70
2022-09-18T06:48:45.204Z,67.70
2022-09-18T06:50:18.828Z,68.60
2022-09-18T06:51:52.424Z,67.90
2022-09-18T06:53:28.056Z,67.90
2022-09-18T06:55:07.498Z,68.80
2022-09-18T06:56:40.210Z,67.90
2022-09-18T06:58:17.474Z,67.80
2022-09-18T06:59:54.075Z,67.90
2022-09-18T07:01:31.629Z,67.90
2022-09-18T07:03:19.515Z,68.00
2022-09-18T07:05:13.371Z,68.10
2022-09-18T07:06:48.032Z,68.00
2022-09-18T07:08:24.913Z,68.10
2022-09-18T07:10:09.100Z,68.20
2022-09-18T07:11:49.582Z,68.50
2022-09-18T07:13:26.176Z,68.50
2022-09-18T07:15:09.061Z,68.60
2022-09-18T07:16:43.017Z,68.70
2022-09-18T07:18:20.733Z,68.60
2022-09-18T07:19:55.611Z,68.70
2022-09-18T07:21:34.131Z,68.70
2022-09-18T07:23:07.694Z,68.60
2022-09-18T07:24:52.286Z,68.80
2022-09-18T07:26:27.820Z,69.50
2022-09-18T07:28:08.196Z,68.80
2022-09-18T07:29:46.421Z,69.00
2022-09-18T07:31:33.172Z,68.80
2022-09-18T07:33:11.908Z,68.80
2022-09-18T07:34:51.875Z,68.60
2022-09-18T07:36:32.513Z,68.60
2022-09-18T07:38:07.664Z,68.40
2022-09-18T07:39:54.920Z,68.20
2022-09-18T07:41:50.266Z,68.20
2022-09-18T07:43:23.693Z,68.00
2022-09-18T07:45:00.316Z,68.10
2022-09-18T07:46:37.662Z,68.30
2022-09-18T07:48:16.214Z,68.50
2022-09-18T07:49:55.412Z,68.50
2022-09-18T07:51:28.947Z,68.50
2022-09-18T07:53:05.412Z,68.60
2022-09-18T07:54:45.625Z,68.70
2022-09-18T07:56:31.631Z,68.70
2022-09-18T07:58:08.256Z,68.60
2022-09-18T08:00:04.194Z,68.60
2022-09-18T08:01:55.919Z,68.50
2022-09-18T08:03:32.653Z,68.50
2022-09-18T08:05:13.047Z,69.30
2022-09-18T08:06:59.474Z,68.40
2022-09-18T08:08:55.105Z,68.50
2022-09-18T08:10:43.107Z,68.40
2022-09-18T08:12:44.167Z,68.60
2022-09-18T08:14:41.035Z,68.80
2022-09-18T08:16:34.596Z,68.80
2022-09-18T08:18:25.140Z,68.70
2022-09-18T08:20:13.103Z,68.60
2022-09-18T08:21:54.756Z,68.60
2022-09-18T08:23:31.021Z,68.60
2022-09-18T08:25:09.570Z,68.50
2022-09-18T08:26:43.178Z,68.60
2022-09-18T08:28:19.581Z,68.00
2022-09-18T08:30:02.081Z,67.70
2022-09-18T08:31:37.089Z,67.70
2022-09-18T08:33:13.768Z,67.70
2022-09-18T08:34:49.803Z,67.70
2022-09-18T08:36:24.013Z,67.70
2022-09-18T08:38:05.662Z,67.70
2022-09-18T08:40:02.237Z,67.80
2022-09-18T08:42:06.299Z,67.70
2022-09-18T08:43:57.794Z,67.60
2022-09-18T08:45:51.660Z,67.50
2022-09-18T08:47:38.490Z,67.60
2022-09-18T08:49:28.276Z,67.20
2022-09-18T08:51:20.375Z,67.20
2022-09-18T08:53:03.788Z,66.90
2022-09-18T08:55:04.450Z,66.70
2022-09-18T08:56:46.218Z,66.60
2022-09-18T08:58:34.848Z,66.70
2022-09-18T09:00:31.190Z,67.00
2022-09-18T09:02:49.145Z,67.10
2022-09-18T09:04:28.671Z,66.80
2022-09-18T09:06:27.115Z,66.90
2022-09-18T09:08:34.501Z,67.00
2022-09-18T09:10:32.212Z,67.10
2022-09-18T09:12:29.888Z,67.00
2022-09-18T09:14:53.185Z,66.60
2022-09-18T09:16:38.403Z,66.60
2022-09-18T09:18:32.259Z,66.20
2022-09-18T09:20:25.212Z,66.00
2022-09-18T09:22:15.932Z,66.10
2022-09-18T09:24:17.137Z,66.70
2022-09-18T09:26:20.321Z,67.20
2022-09-18T09:28:16.531Z,66.90
2022-09-18T09:30:14.330Z,66.70
2022-09-18T09:32:20.754Z,66.90
2022-09-18T09:34:17.339Z,67.10
2022-09-18T09:36:07.082Z,67.00
2022-09-18T09:37:55.584Z,66.70
2022-09-18T09:39:36.570Z,66.80
2022-09-18T09:41:23.284Z,67.10
2022-09-18T09:43:04.749Z,67.00
2022-09-18T09:44:43.893Z,66.90
2022-09-18T09:46:40.967Z,66.70
2022-09-18T09:48:35.538Z,66.90
2022-09-18T09:50:40.202Z,67.20
2022-09-18T09:52:23.063Z,67.50
2022-09-18T09:54:05.076Z,67.20
2022-09-18T09:55:53.114Z,66.80
2022-09-18T09:57:40.919Z,66.50
2022-09-18T09:59:29.548Z,66.40
2022-09-18T10:01:22.237Z,66.40
2022-09-18T10:03:26.344Z,66.50
2022-09-18T10:05:18.124Z,66.40
2022-09-18T10:06:59.340Z,66.50
2022-09-18T10:08:44.353Z,66.70
2022-09-18T10:10:40.991Z,66.70
2022-09-18T10:12:27.670Z,66.70
2022-09-18T10:14:13.585Z,66.20
2022-09-18T10:15:55.091Z,66.00
2022-09-18T10:17:39.811Z,66.20
2022-09-18T10:19:19.179Z,66.50
2022-09-18T10:21:04.035Z,66.80
2022-09-18T10:22:40.667Z,66.30
2022-09-18T10:24:26.257Z,65.70
2022-09-18T10:26:04.469Z,64.80
2022-09-18T10:27:38.870Z,64.20
2022-09-18T10:29:12.893Z,64.00
2022-09-18T10:31:06.443Z,63.60
2022-09-18T10:32:48.505Z,63.20
2022-09-18T10:34:40.724Z,63.20
2022-09-18T10:36:26.819Z,62.90
2022-09-18T10:38:01.616Z,63.10
2022-09-18T10:39:52.536Z,63.30
2022-09-18T10:41:34.114Z,63.60
2022-09-18T10:43:18.399Z,63.70
2022-09-18T10:45:03.436Z,63.70
2022-09-18T10:46:58.947Z,63.00
2022-09-18T10:48:36.284Z,62.70
2022-09-18T10:50:21.150Z,62.90
2022-09-18T10:52:32.556Z,62.70
2022-09-18T10:54:23.017Z,63.00
2022-09-18T10:56:17.309Z,63.30
2022-09-18T10:58:15.543Z,63.60
2022-09-18T10:59:56.621Z,64.20
2022-09-18T11:01:33.244Z,64.00
2022-09-18T11:03:45.884Z,63.90
2022-09-18T11:05:33.148Z,64.30
2022-09-18T11:07:14.791Z,64.50
2022-09-18T11:09:02.752Z,64.50
2022-09-18T11:10:41.352Z,64.60
2022-09-18T11:12:27.778Z,64.40
2022-09-18T11:14:16.744Z,64.90
2022-09-18T11:16:03.858Z,64.70
2022-09-18T11:17:49.669Z,64.80
2022-09-18T11:19:29.663Z,64.90
2022-09-18T11:21:07.766Z,65.70
2022-09-18T11:22:44.160Z,64.80
2022-09-18T11:24:27.928Z,64.60
2022-09-18T11:26:21.693Z,64.50
2022-09-18T11:28:00.243Z,64.50
2022-09-18T11:29:42.408Z,64.50
2022-09-18T11:31:22.669Z,64.40
2022-09-18T11:33:24.672Z,64.50
2022-09-18T11:35:07.964Z,64.50
2022-09-18T11:36:52.213Z,64.50
2022-09-18T11:38:25.685Z,64.50
2022-09-18T11:40:07.523Z,64.50
2022-09-18T11:41:47.622Z,64.50
2022-09-18T11:43:30.535Z,64.60
2022-09-18T11:45:32.348Z,64.70
2022-09-18T11:47:39.957Z,64.90
2022-09-18T11:49:31.246Z,65.40
2022-09-18T11:51:17.206Z,65.00
2022-09-18T11:52:59.714Z,64.90
2022-09-18T11:54:43.802Z,64.90
2022-09-18T11:56:28.740Z,65.10
2022-09-18T11:58:14.597Z,65.10
2022-09-18T12:00:00.849Z,65.40
2022-09-18T12:01:47.073Z,65.60
2022-09-18T12:03:32.925Z,65.60
2022-09-18T12:05:21.652Z,65.90
2022-09-18T12:07:15.403Z,66.10
2022-09-18T12:08:58.908Z,66.20
2022-09-18T12:10:52.465Z,66.00
2022-09-18T12:12:38.688Z,66.10
2022-09-18T12:14:23.737Z,66.20
2022-09-18T12:16:28.231Z,66.50
2022-09-18T12:18:14.780Z,67.00
2022-09-18T12:19:57.992Z,67.20
2022-09-18T12:21:45.372Z,67.60
2022-09-18T12:23:26.448Z,67.80
2022-09-18T12:25:16.767Z,67.60
2022-09-18T12:27:28.679Z,67.60
2022-09-18T12:29:17.928Z,67.70
2022-09-18T12:31:02.147Z,67.70
2022-09-18T12:33:13.310Z,67.70
2022-09-18T12:35:06.351Z,67.80
2022-09-18T12:37:22.951Z,67.80
2022-09-18T12:39:15.823Z,68.20
2022-09-18T12:41:12.650Z,68.00
2022-09-18T12:43:04.503Z,67.80
2022-09-18T12:45:43.561Z,67.60
2022-09-18T12:47:43.298Z,67.80
2022-09-18T12:49:57.787Z,67.80
2022-09-18T12:51:45.328Z,67.80
2022-09-18T12:53:35.044Z,67.90
2022-09-18T12:55:40.234Z,67.90
2022-09-18T12:57:36.080Z,67.90
2022-09-18T12:59:42.422Z,67.80
2022-09-18T13:01:30.012Z,67.70
2022-09-18T13:03:18.626Z,67.70
2022-09-18T13:05:01.575Z,67.50
2022-09-18T13:06:49.044Z,67.30
2022-09-18T13:08:32.099Z,67.50
2022-09-18T13:10:15.747Z,67.60
2022-09-18T13:12:00.008Z,67.70
2022-09-18T13:13:40.973Z,67.90
2022-09-18T13:15:21.620Z,67.90
2022-09-18T13:17:05.015Z,67.90
2022-09-18T13:18:49.849Z,68.00
2022-09-18T13:20:29.359Z,68.00
2022-09-18T13:22:15.132Z,68.00
2022-09-18T13:23:54.436Z,68.00
2022-09-18T13:25:36.267Z,68.00
2022-09-18T13:27:18.189Z,68.00
2022-09-18T13:28:55.693Z,68.00
2022-09-18T13:30:30.690Z,68.00
2022-09-18T13:32:04.495Z,68.00
2022-09-18T13:33:49.147Z,67.90
2022-09-18T13:35:31.994Z,67.80
2022-09-18T13:37:24.019Z,68.00
2022-09-18T13:39:03.512Z,67.90
2022-09-18T13:40:41.340Z,67.80
2022-09-18T13:42:14.696Z,67.60
2022-09-18T13:44:01.010Z,67.60
2022-09-18T13:45:41.346Z,68.00
2022-09-18T13:47:18.710Z,68.00
2022-09-18T13:48:57.015Z,67.90
2022-09-18T13:50:34.125Z,67.60
2022-09-18T13:52:52.561Z,67.20
2022-09-18T13:54:29.320Z,66.70
2022-09-18T13:56:03.873Z,66.50
2022-09-18T13:57:38.847Z,66.10
2022-09-18T13:59:27.000Z,66.00
2022-09-18T14:01:04.090Z,66.10
2022-09-18T14:02:39.261Z,66.20
2022-09-18T14:05:13.020Z,66.40
2022-09-18T14:06:49.047Z,66.50
2022-09-18T14:08:43.083Z,66.30
2022-09-18T14:10:27.356Z,66.30
2022-09-18T14:12:13.407Z,66.30
2022-09-18T14:13:54.256Z,66.30
2022-09-18T14:15:27.059Z,66.30
2022-09-18T14:17:16.757Z,66.40
2022-09-18T14:19:04.052Z,66.50
2022-09-18T14:20:38.759Z,66.60
2022-09-18T14:22:33.389Z,66.60
2022-09-18T14:24:41.300Z,66.90
2022-09-18T14:27:05.401Z,67.00
2022-09-18T14:28:51.526Z,67.10
2022-09-18T14:30:31.976Z,66.90
2022-09-18T14:32:17.640Z,66.80
2022-09-18T14:33:51.071Z,66.70
2022-09-18T14:35:35.713Z,66.50
2022-09-18T14:37:29.960Z,66.60
2022-09-18T14:39:05.320Z,66.60
2022-09-18T14:40:41.734Z,66.50
2022-09-18T14:42:33.221Z,66.60
2022-09-18T14:44:07.548Z,66.60
2022-09-18T14:45:44.180Z,66.50
2022-09-18T14:47:30.860Z,66.60
2022-09-18T14:49:04.434Z,66.60
2022-09-18T14:50:38.981Z,66.50
2022-09-18T14:52:25.315Z,66.30
2022-09-18T14:54:02.536Z,66.00
2022-09-18T14:55:48.644Z,66.10
2022-09-18T14:57:26.953Z,66.20
2022-09-18T14:59:05.673Z,66.30
2022-09-18T15:00:40.001Z,66.40
2022-09-18T15:02:32.678Z,66.30
2022-09-18T15:04:14.165Z,66.20
2022-09-18T15:05:56.915Z,66.20
2022-09-18T15:07:36.746Z,66.20
2022-09-18T15:09:15.045Z,65.90
2022-09-18T15:10:59.615Z,65.80
2022-09-18T15:12:39.772Z,65.70
2022-09-18T15:14:28.892Z,65.50
2022-09-18T15:16:05.044Z,65.50
2022-09-18T15:17:41.508Z,65.60
2022-09-18T15:19:18.407Z,65.50
2022-09-18T15:20:54.512Z,65.40
2022-09-18T15:22:30.398Z,65.10
2022-09-18T15:24:04.943Z,64.30
2022-09-18T15:25:42.613Z,64.40
2022-09-18T15:27:19.412Z,64.60
2022-09-18T15:28:55.576Z,64.70
2022-09-18T15:30:28.840Z,64.80
2022-09-18T15:32:05.533Z,64.70
2022-09-18T15:33:43.481Z,64.30
2022-09-18T15:35:21.690Z,64.30
2022-09-18T15:37:01.290Z,64.30
2022-09-18T15:38:41.766Z,64.30
2022-09-18T15:40:20.373Z,64.20
2022-09-18T15:41:54.065Z,64.30
2022-09-18T15:43:43.347Z,64.20
2022-09-18T15:45:23.487Z,64.20
2022-09-18T15:46:55.962Z,64.20
2022-09-18T15:48:38.850Z,64.20
2022-09-18T15:50:43.086Z,64.40
2022-09-18T15:52:38.207Z,64.20
2022-09-18T15:54:27.466Z,64.10
2022-09-18T15:56:06.115Z,64.20
2022-09-18T15:57:49.292Z,64.20
2022-09-18T15:59:31.304Z,64.20
2022-09-18T16:01:07.254Z,64.10
2022-09-18T16:02:43.281Z,64.10
2022-09-18T16:04:21.063Z,64.10
2022-09-18T16:05:59.260Z,64.10
2022-09-18T16:07:33.599Z,64.10
2022-09-18T16:09:07.032Z,64.10
2022-09-18T16:10:50.915Z,64.10
2022-09-18T16:12:43.006Z,64.10
2022-09-18T16:15:00.172Z,64.10
2022-09-18T16:16:33.997Z,64.00
2022-09-18T16:18:25.570Z,64.00
2022-09-18T16:20:00.539Z,64.00
2022-09-18T16:21:42.443Z,64.00
2022-09-18T16:23:21.399Z,64.00
2022-09-18T16:24:56.465Z,64.00
2022-09-18T16:26:33.701Z,63.90
2022-09-18T16:28:24.207Z,63.90
2022-09-18T16:29:59.340Z,63.90
2022-09-18T16:31:35.847Z,63.90
2022-09-18T16:33:19.027Z,63.90
2022-09-18T16:34:52.327Z,63.90
2022-09-18T16:36:31.042Z,64.00
2022-09-18T16:38:03.371Z,64.20
2022-09-18T16:39:36.612Z,64.30
2022-09-18T16:41:10.644Z,65.10
2022-09-18T16:42:43.313Z,64.20
2022-09-18T16:44:18.878Z,63.90
2022-09-18T16:45:54.871Z,63.80
2022-09-18T16:47:28.619Z,64.00
2022-09-18T16:49:02.756Z,64.10
2022-09-18T16:50:37.243Z,64.30
2022-09-18T16:52:11.561Z,64.40
2022-09-18T16:53:45.447Z,64.40
2022-09-18T16:55:18.992Z,64.20
2022-09-18T16:56:58.977Z,63.70
2022-09-18T16:58:32.353Z,63.70
2022-09-18T17:00:10.078Z,64.20
2022-09-18T17:02:03.018Z,64.20
2022-09-18T17:03:36.907Z,64.30
2022-09-18T17:05:12.269Z,64.40
2022-09-18T17:06:45.951Z,64.40
2022-09-18T17:08:19.418Z,64.30
2022-09-18T17:09:53.097Z,64.30
2022-09-18T17:11:26.494Z,64.20
2022-09-18T17:13:00.266Z,64.20
2022-09-18T17:14:34.498Z,64.20
2022-09-18T17:16:07.975Z,63.90
2022-09-18T17:17:43.487Z,63.60
2022-09-18T17:19:17.094Z,63.50
2022-09-18T17:20:50.323Z,63.50
2022-09-18T17:22:23.625Z,63.50
2022-09-18T17:23:58.044Z,63.60
2022-09-18T17:25:31.764Z,63.70
2022-09-18T17:27:05.615Z,63.90
2022-09-18T17:28:39.862Z,63.90
2022-09-18T17:30:14.853Z,63.90
2022-09-18T17:31:48.459Z,63.90
2022-09-18T17:33:27.815Z,64.00
2022-09-18T17:35:01.687Z,63.90
2022-09-18T17:36:39.930Z,63.90
2022-09-18T17:38:13.321Z,64.00
2022-09-18T17:39:47.372Z,64.00
2022-09-18T17:41:25.791Z,63.90
2022-09-18T17:43:10.174Z,63.90
2022-09-18T17:44:48.122Z,63.80
2022-09-18T17:46:24.471Z,63.80
2022-09-18T17:48:00.697Z,63.90
2022-09-18T17:49:37.170Z,64.00
2022-09-18T17:51:13.859Z,64.00
2022-09-18T17:52:47.359Z,64.10
2022-09-18T17:54:24.259Z,64.30
2022-09-18T17:55:59.916Z,63.90
2022-09-18T17:57:37.829Z,63.90
2022-09-18T17:59:15.480Z,63.70
2022-09-18T18:00:50.716Z,63.40
2022-09-18T18:02:26.871Z,63.30
2022-09-18T18:04:02.101Z,63.20
2022-09-18T18:05:39.863Z,63.10
2022-09-18T18:07:23.717Z,63.10
2022-09-18T18:08:59.575Z,63.10
2022-09-18T18:10:33.009Z,63.10
2022-09-18T18:12:11.779Z,63.10
2022-09-18T18:13:49.712Z,63.00
2022-09-18T18:15:26.251Z,63.10
2022-09-18T18:17:00.878Z,63.10
2022-09-18T18:18:39.924Z,63.20
2022-09-18T18:20:13.692Z,63.50
2022-09-18T18:21:52.247Z,63.60
2022-09-18T18:23:29.059Z,63.60
2022-09-18T18:25:04.718Z,63.60
2022-09-18T18:26:42.111Z,63.80
2022-09-18T18:28:15.458Z,63.80
2022-09-18T18:29:52.405Z,63.70
2022-09-18T18:31:26.659Z,63.80
2022-09-18T18:33:02.175Z,63.80
2022-09-18T18:34:35.693Z,63.80
2022-09-18T18:36:14.188Z,63.70
2022-09-18T18:37:54.860Z,63.90
2022-09-18T18:39:28.410Z,64.00
2022-09-18T18:41:07.327Z,64.00
2022-09-18T18:42:40.674Z,63.90
2022-09-18T18:44:19.211Z,63.90
2022-09-18T18:45:53.614Z,63.70
2022-09-18T18:47:27.102Z,63.80
2022-09-18T18:49:03.980Z,63.70
2022-09-18T18:50:42.645Z,63.70
2022-09-18T18:52:16.853Z,63.90
2022-09-18T18:54:00.126Z,63.90
2022-09-18T18:55:35.895Z,63.80
2022-09-18T18:57:09.335Z,63.70
2022-09-18T18:58:43.913Z,63.60
2022-09-18T19:00:19.748Z,63.60
2022-09-18T19:01:57.307Z,63.50
2022-09-18T19:03:29.915Z,63.50
2022-09-18T19:05:03.442Z,63.40
2022-09-18T19:06:39.384Z,63.20
2022-09-18T19:08:12.368Z,63.00
2022-09-18T19:09:46.929Z,63.00
2022-09-18T19:11:23.488Z,62.70
2022-09-18T19:12:58.529Z,62.80
2022-09-18T19:14:37.828Z,62.80
2022-09-18T19:16:11.679Z,62.60
2022-09-18T19:17:45.083Z,62.60
2022-09-18T19:19:21.936Z,62.60
2022-09-18T19:20:59.903Z,62.40
2022-09-18T19:22:36.122Z,62.40
2022-09-18T19:24:13.381Z,62.40
2022-09-18T19:25:48.448Z,62.50
2022-09-18T19:27:23.312Z,62.70
2022-09-18T19:28:59.538Z,62.90
2022-09-18T19:30:37.869Z,62.90
2022-09-18T19:32:11.415Z,62.90
2022-09-18T19:33:44.692Z,62.80
2022-09-18T19:35:21.508Z,63.00
2022-09-18T19:36:54.760Z,63.00
2022-09-18T19:38:27.693Z,63.00
2022-09-18T19:40:00.992Z,63.20
2022-09-18T19:41:41.444Z,63.30
2022-09-18T19:43:29.619Z,63.20
2022-09-18T19:45:06.622Z,63.30
2022-09-18T19:46:43.241Z,63.40
2022-09-18T19:48:23.765Z,63.40
2022-09-18T19:49:58.897Z,63.30
2022-09-18T19:51:37.740Z,63.40
2022-09-18T19:53:11.068Z,63.40
2022-09-18T19:54:44.935Z,63.30
2022-09-18T19:56:41.777Z,63.20
2022-09-18T19:58:16.173Z,63.20
2022-09-18T19:59:54.655Z,63.10
2022-09-18T20:01:28.056Z,63.10
2022-09-18T20:03:01.580Z,63.10
2022-09-18T20:04:39.164Z,63.10
2022-09-18T20:06:14.158Z,63.10
2022-09-18T20:07:50.888Z,62.90
2022-09-18T20:09:28.481Z,62.90
2022-09-18T20:11:01.812Z,62.80
2022-09-18T20:12:35.853Z,62.80
2022-09-18T20:14:15.176Z,62.90
2022-09-18T20:15:59.495Z,63.00
2022-09-18T20:17:34.028Z,63.10
2022-09-18T20:19:09.985Z,63.10
2022-09-18T20:20:44.656Z,63.10
2022-09-18T20:22:21.084Z,62.90
2022-09-18T20:24:01.984Z,62.90
2022-09-18T20:25:36.309Z,62.90
2022-09-18T20:27:09.960Z,62.90
2022-09-18T20:28:54.177Z,62.90
2022-09-18T20:30:29.243Z,63.00
2022-09-18T20:32:05.861Z,63.00
2022-09-18T20:33:41.134Z,63.00
2022-09-18T20:35:18.460Z,63.10
2022-09-18T20:36:54.847Z,63.10
2022-09-18T20:38:31.589Z,63.20
2022-09-18T20:40:08.892Z,63.40
2022-09-18T20:41:42.687Z,63.40
2022-09-18T20:43:16.412Z,63.50
2022-09-18T20:44:49.661Z,63.70
2022-09-18T20:46:27.380Z,63.80
2022-09-18T20:48:06.260Z,63.90
2022-09-18T20:49:42.241Z,64.10
2022-09-18T20:51:18.275Z,64.10
2022-09-18T20:52:52.260Z,64.30
2022-09-18T20:54:25.815Z,64.40
2022-09-18T20:56:04.027Z,64.60
2022-09-18T20:57:37.968Z,64.60
2022-09-18T20:59:12.386Z,64.70
2022-09-18T21:00:46.682Z,65.10
2022-09-18T21:02:25.443Z,65.20
2022-09-18T21:04:03.933Z,65.30
2022-09-18T21:05:38.904Z,65.50
2022-09-18T21:07:12.425Z,65.40
2022-09-18T21:08:48.563Z,65.50
2022-09-18T21:10:21.891Z,65.60
2022-09-18T21:11:56.559Z,65.90
2022-09-18T21:13:31.295Z,65.90
2022-09-18T21:15:05.352Z,65.90
2022-09-18T21:16:42.839Z,66.00
2022-09-18T21:18:18.603Z,66.20
2022-09-18T21:19:51.956Z,66.30
2022-09-18T21:21:27.356Z,66.50
2022-09-18T21:23:18.464Z,66.70
2022-09-18T21:24:51.642Z,66.80
2022-09-18T21:26:28.110Z,66.90
2022-09-18T21:28:03.158Z,67.10
2022-09-18T21:29:40.604Z,67.20
2022-09-18T21:31:14.246Z,67.40
2022-09-18T21:32:52.558Z,67.50
2022-09-18T21:34:33.343Z,67.70
2022-09-18T21:36:06.466Z,67.70
2022-09-18T21:37:39.636Z,67.80
2022-09-18T21:39:14.640Z,67.80
2022-09-18T21:40:48.332Z,67.90
2022-09-18T21:42:22.044Z,67.70
2022-09-18T21:43:57.355Z,67.80
2022-09-18T21:45:30.939Z,67.90